createdAt,value
2018-11-06T00:00:29.108Z,21.00
2018-11-06T00:05:32.670Z,24.50
2018-11-06T00:10:36.190Z,20.80
2018-11-06T00:15:41.782Z,21.77
2018-11-06T00:20:45.368Z,36.47
2018-11-06T00:25:48.982Z,70.17
2018-11-06T00:30:52.526Z,86.20
2018-11-06T00:35:57.270Z,49.27
2018-11-06T00:41:00.965Z,46.17
2018-11-06T00:46:05.865Z,47.20
2018-11-06T00:51:09.394Z,57.57
2018-11-06T00:56:12.918Z,39.37
2018-11-06T01:01:16.957Z,34.50
2018-11-06T01:06:20.605Z,23.53
2018-11-06T01:11:24.127Z,21.83
2018-11-06T01:16:27.875Z,27.07
2018-11-06T01:21:31.622Z,23.80
2018-11-06T01:26:35.257Z,20.03
2018-11-06T01:31:38.815Z,22.63
2018-11-06T01:36:42.438Z,19.13
2018-11-06T01:41:45.995Z,21.60
2018-11-06T01:46:49.605Z,21.07
2018-11-06T01:51:53.219Z,29.80
2018-11-06T01:56:56.839Z,28.73
2018-11-06T02:02:00.574Z,27.87
2018-11-06T02:07:04.501Z,72.43
2018-11-06T02:12:08.081Z,80.10
2018-11-06T02:17:11.703Z,43.53
2018-11-06T02:22:15.301Z,70.17
2018-11-06T02:27:18.854Z,48.27
2018-11-06T02:32:26.023Z,39.37
2018-11-06T02:37:29.591Z,49.83
2018-11-06T02:42:33.246Z,35.93
2018-11-06T02:47:36.858Z,47.23
2018-11-06T02:52:40.855Z,105.90
2018-11-06T02:57:44.387Z,66.80
2018-11-06T03:02:48.535Z,142.47
2018-11-06T03:07:52.149Z,140.60
2018-11-06T03:12:55.725Z,67.70
2018-11-06T03:17:59.297Z,43.33
2018-11-06T03:23:02.840Z,65.80
2018-11-06T03:28:06.479Z,72.90
2018-11-06T03:33:10.198Z,67.57
2018-11-06T03:38:13.736Z,52.53
2018-11-06T03:43:17.282Z,110.27
2018-11-06T03:48:22.975Z,129.57
2018-11-06T03:53:26.612Z,93.97
2018-11-06T03:58:30.146Z,109.20
2018-11-06T04:03:33.675Z,133.97
2018-11-06T04:08:37.280Z,103.93
2018-11-06T04:13:40.886Z,42.27
2018-11-06T04:18:44.482Z,151.37
2018-11-06T04:23:49.120Z,156.90
2018-11-06T04:28:52.686Z,165.13
2018-11-06T04:33:57.367Z,145.17
2018-11-06T04:39:04.122Z,81.90
2018-11-06T04:44:08.946Z,94.80
2018-11-06T04:49:12.776Z,121.80
2018-11-06T04:54:16.290Z,73.83
2018-11-06T04:59:20.850Z,76.93
2018-11-06T05:04:24.493Z,115.40
2018-11-06T05:09:31.837Z,40.50
2018-11-06T05:14:35.355Z,86.67
2018-11-06T05:19:39.075Z,165.80
2018-11-06T05:24:42.685Z,131.27
2018-11-06T05:29:46.230Z,178.20
2018-11-06T05:34:49.983Z,129.27
2018-11-06T05:40:04.627Z,91.17
2018-11-06T05:45:09.212Z,90.20
2018-11-06T05:50:12.819Z,50.73
2018-11-06T05:55:16.374Z,66.70
2018-11-06T06:00:20.149Z,62.53
2018-11-06T06:05:23.761Z,42.93
2018-11-06T06:10:27.540Z,21.73
2018-11-06T06:15:32.206Z,24.87
2018-11-06T06:20:35.726Z,34.37
2018-11-06T06:25:39.274Z,22.20
2018-11-06T06:30:42.899Z,24.03
2018-11-06T06:35:46.458Z,28.70
2018-11-06T06:40:50.018Z,70.83
2018-11-06T06:45:53.618Z,44.30
2018-11-06T06:50:58.318Z,64.50
2018-11-06T06:56:01.865Z,125.43
2018-11-06T07:01:05.943Z,108.37
2018-11-06T07:06:09.649Z,37.03
2018-11-06T07:11:13.262Z,199.10
2018-11-06T07:16:16.954Z,65.13
2018-11-06T07:21:20.566Z,59.57
2018-11-06T07:26:24.231Z,65.10
2018-11-06T07:31:27.818Z,122.20
2018-11-06T07:36:31.565Z,125.97
2018-11-06T07:41:35.132Z,47.30
2018-11-06T07:46:38.907Z,29.37
2018-11-06T07:51:42.638Z,54.27
2018-11-06T07:56:46.330Z,84.57
2018-11-06T08:01:54.619Z,43.00
2018-11-06T08:06:58.147Z,45.70
2018-11-06T08:12:01.727Z,43.03
2018-11-06T08:17:06.147Z,45.60
2018-11-06T08:22:13.129Z,60.50
2018-11-06T08:27:16.846Z,54.87
2018-11-06T08:32:20.770Z,80.27
2018-11-06T08:37:24.103Z,52.30
2018-11-06T08:42:27.684Z,57.97
2018-11-06T08:47:44.813Z,36.17
2018-11-06T08:52:48.603Z,51.80
2018-11-06T08:57:52.155Z,45.23
2018-11-06T09:02:55.814Z,44.53
2018-11-06T09:07:59.539Z,35.17
2018-11-06T09:13:03.238Z,31.93
2018-11-06T09:18:06.977Z,32.30
2018-11-06T09:23:10.639Z,32.47
2018-11-06T09:28:14.342Z,31.00
2018-11-06T09:33:17.998Z,33.70
2018-11-06T09:38:21.674Z,37.40
2018-11-06T09:43:25.393Z,45.10
2018-11-06T09:48:30.053Z,37.57
2018-11-06T09:53:33.902Z,32.50
2018-11-06T09:58:37.503Z,32.47
2018-11-06T10:03:41.142Z,29.83
2018-11-06T10:08:44.890Z,28.97
2018-11-06T10:13:48.520Z,27.20
2018-11-06T10:18:52.331Z,29.50
2018-11-06T10:23:56.015Z,28.67
2018-11-06T10:28:59.626Z,27.87
2018-11-06T10:34:03.284Z,29.93
2018-11-06T10:39:10.352Z,28.23
2018-11-06T10:44:14.070Z,30.30
2018-11-06T10:49:17.761Z,32.53
2018-11-06T10:54:21.490Z,30.50
2018-11-06T10:59:26.119Z,36.27
2018-11-06T11:04:30.396Z,30.10
2018-11-06T11:09:34.019Z,43.13
2018-11-06T11:14:37.612Z,28.70
2018-11-06T11:19:42.385Z,27.40
2018-11-06T11:24:46.124Z,27.37
2018-11-06T11:29:49.876Z,25.73
2018-11-06T11:34:54.106Z,30.47
2018-11-06T11:39:59.687Z,28.63
2018-11-06T11:45:03.388Z,29.30
2018-11-06T11:50:08.619Z,32.43
2018-11-06T11:55:12.538Z,30.03
2018-11-06T12:00:19.067Z,31.90
2018-11-06T12:05:22.742Z,26.67
2018-11-06T12:10:27.579Z,27.77
2018-11-06T12:15:31.786Z,29.23
2018-11-06T12:20:36.511Z,26.87
2018-11-06T12:25:44.370Z,29.10
2018-11-06T12:30:49.372Z,27.37
2018-11-06T12:35:55.080Z,27.67
2018-11-06T12:46:37.663Z,24.40
2018-11-06T12:51:41.344Z,29.30
2018-11-06T12:56:45.956Z,26.30
2018-11-06T13:01:51.492Z,30.20
2018-11-06T13:06:55.259Z,23.80
2018-11-06T13:11:58.946Z,24.00
2018-11-06T13:22:13.279Z,21.17
2018-11-06T13:27:18.746Z,22.93
2018-11-06T13:32:23.042Z,25.23
2018-11-06T13:37:26.720Z,25.30
2018-11-06T13:42:30.549Z,22.63
2018-11-06T13:47:35.631Z,21.90
2018-11-06T13:52:40.312Z,18.23
2018-11-06T13:57:48.486Z,18.20
2018-11-06T14:02:52.152Z,20.57
2018-11-06T14:07:55.801Z,17.00
2018-11-06T14:12:59.446Z,19.10
2018-11-06T14:18:04.492Z,17.10
2018-11-06T14:23:10.647Z,16.73
2018-11-06T14:28:16.530Z,16.73
2018-11-06T14:33:20.479Z,14.37
2018-11-06T14:38:25.536Z,14.23
2018-11-06T14:43:29.475Z,14.20
2018-11-06T14:48:33.331Z,12.97
2018-11-06T14:53:38.051Z,16.23
2018-11-06T14:58:41.821Z,12.50
2018-11-06T15:03:45.574Z,21.63
2018-11-06T15:08:51.308Z,12.97
2018-11-06T15:13:54.949Z,12.77
2018-11-06T15:18:58.551Z,12.43
2018-11-06T15:24:02.314Z,15.00
2018-11-06T15:29:07.059Z,15.93
2018-11-06T15:34:10.735Z,13.60
2018-11-06T15:39:15.470Z,23.07
2018-11-06T15:44:19.259Z,23.70
2018-11-06T15:49:24.940Z,22.50
2018-11-06T15:54:30.598Z,19.83
2018-11-06T15:59:34.249Z,21.20
2018-11-06T16:04:39.607Z,22.17
2018-11-06T16:09:43.288Z,18.93
2018-11-06T16:14:46.946Z,18.07
2018-11-06T16:19:51.750Z,15.97
2018-11-06T16:24:56.530Z,18.33
2018-11-06T16:30:00.465Z,23.30
2018-11-06T16:35:05.914Z,23.03
2018-11-06T16:40:10.246Z,13.87
2018-11-06T16:45:15.994Z,18.10
2018-11-06T16:50:21.771Z,19.17
2018-11-06T16:55:25.522Z,19.73
2018-11-06T17:00:29.369Z,20.57
2018-11-06T17:05:33.070Z,16.40
2018-11-06T17:10:36.718Z,21.63
2018-11-06T17:15:40.535Z,25.23
2018-11-06T17:20:44.099Z,23.30
2018-11-06T17:25:48.002Z,21.50
2018-11-06T17:30:51.602Z,22.33
2018-11-06T17:35:57.220Z,25.63
2018-11-06T17:41:00.964Z,23.43
2018-11-06T17:46:07.078Z,22.83
2018-11-06T17:51:11.611Z,35.23
2018-11-06T17:56:16.265Z,37.87
2018-11-06T18:01:20.026Z,18.83
2018-11-06T18:06:23.993Z,21.33
2018-11-06T18:11:27.716Z,24.23
2018-11-06T18:16:31.582Z,39.03
2018-11-06T18:21:36.267Z,20.13
2018-11-06T18:26:39.983Z,21.50
2018-11-06T18:31:44.043Z,23.20
2018-11-06T18:36:47.620Z,27.10
2018-11-06T18:41:51.255Z,29.67
2018-11-06T18:46:54.982Z,51.53
2018-11-06T18:52:00.755Z,42.83
2018-11-06T18:57:06.338Z,35.47
2018-11-06T19:02:10.309Z,41.23
2018-11-06T19:07:14.210Z,42.70
2018-11-06T19:12:18.038Z,37.80
2018-11-06T19:17:22.727Z,39.60
2018-11-06T19:22:26.511Z,39.93
2018-11-06T19:27:30.144Z,33.33
2018-11-06T19:32:33.775Z,34.00
2018-11-06T19:37:37.918Z,36.10
2018-11-06T19:42:46.112Z,32.67
2018-11-06T19:47:49.838Z,30.60
2018-11-06T19:52:53.543Z,35.20
2018-11-06T19:57:58.127Z,31.37
2018-11-06T20:03:01.825Z,26.60
2018-11-06T20:08:06.565Z,24.57
2018-11-06T20:13:10.114Z,26.70
2018-11-06T20:18:13.774Z,21.00
2018-11-06T20:23:17.480Z,19.03
2018-11-06T20:28:22.027Z,18.47
2018-11-06T20:33:25.815Z,20.80
2018-11-06T20:38:29.414Z,17.37
2018-11-06T20:43:33.031Z,15.60
2018-11-06T20:48:37.098Z,19.90
2018-11-06T20:53:41.759Z,19.20
2018-11-06T20:58:45.330Z,22.37
2018-11-06T21:03:49.069Z,27.80
2018-11-06T21:08:52.755Z,27.77
2018-11-06T21:13:56.446Z,28.20
2018-11-06T21:19:00.171Z,27.63
2018-11-06T21:24:04.975Z,22.83
2018-11-06T21:29:09.738Z,23.73
2018-11-06T21:34:13.404Z,25.00
2018-11-06T21:39:17.091Z,24.60
2018-11-06T21:44:20.674Z,29.93
2018-11-06T21:49:24.531Z,29.67
2018-11-06T21:54:28.240Z,34.43
2018-11-06T21:59:32.885Z,34.43
2018-11-06T22:04:36.690Z,30.73
2018-11-06T22:09:40.467Z,31.83
2018-11-06T22:14:44.174Z,23.30
2018-11-06T22:19:54.515Z,22.57
2018-11-06T22:25:00.652Z,17.70
2018-11-06T22:30:06.083Z,20.53
2018-11-06T22:35:11.212Z,22.03
2018-11-06T22:40:16.474Z,26.90
2018-11-06T22:45:20.066Z,21.10
2018-11-06T22:50:23.659Z,21.57
2018-11-06T22:55:27.243Z,20.43
2018-11-06T23:00:37.135Z,18.97
2018-11-06T23:05:41.272Z,16.93
2018-11-06T23:10:45.077Z,19.23
2018-11-06T23:15:48.909Z,27.50
2018-11-06T23:20:53.425Z,29.67
2018-11-06T23:25:56.979Z,27.87
2018-11-06T23:31:00.698Z,29.23
2018-11-06T23:36:04.288Z,30.23
2018-11-06T23:41:08.019Z,20.57
2018-11-06T23:46:11.538Z,25.10
2018-11-06T23:51:15.162Z,20.17
2018-11-06T23:56:18.747Z,19.13
